sensor_id;sensor_type;location;lat;lon;timestamp;pressure;altitude;pressure_sealevel;temperature;humidity
63009;BME280;49099;28.428;-16.488;2023-04-30T00:00:02;98852.38;;;21.75;68.40
63009;BME280;49099;28.428;-16.488;2023-04-30T00:02:33;98848.13;;;21.74;68.42
63009;BME280;49099;28.428;-16.488;2023-04-30T00:05:01;98833.03;;;21.73;68.38
63009;BME280;49099;28.428;-16.488;2023-04-30T00:07:28;98827.63;;;21.73;68.45
63009;BME280;49099;28.428;-16.488;2023-04-30T00:09:55;98804.66;;;21.66;68.34
63009;BME280;49099;28.428;-16.488;2023-04-30T00:12:23;98796.22;;;21.68;68.81
63009;BME280;49099;28.428;-16.488;2023-04-30T00:14:50;98783.84;;;21.67;68.75
63009;BME280;49099;28.428;-16.488;2023-04-30T00:17:17;98780.81;;;21.68;67.92
63009;BME280;49099;28.428;-16.488;2023-04-30T00:19:44;98782.53;;;21.73;68.44
63009;BME280;49099;28.428;-16.488;2023-04-30T00:22:11;98784.75;;;21.71;68.45
63009;BME280;49099;28.428;-16.488;2023-04-30T00:24:38;98787.44;;;21.71;68.42
63009;BME280;49099;28.428;-16.488;2023-04-30T00:27:05;98785.41;;;21.68;68.90
63009;BME280;49099;28.428;-16.488;2023-04-30T00:29:32;98794.63;;;21.67;67.99
63009;BME280;49099;28.428;-16.488;2023-04-30T00:32:00;98790.38;;;21.66;69.14
63009;BME280;49099;28.428;-16.488;2023-04-30T00:34:29;98789.91;;;21.64;68.84
63009;BME280;49099;28.428;-16.488;2023-04-30T00:36:56;98783.72;;;21.63;68.61
63009;BME280;49099;28.428;-16.488;2023-04-30T00:39:23;98776.88;;;21.66;68.70
63009;BME280;49099;28.428;-16.488;2023-04-30T00:41:50;98773.50;;;21.69;68.39
63009;BME280;49099;28.428;-16.488;2023-04-30T00:44:17;98767.47;;;21.72;68.76
63009;BME280;49099;28.428;-16.488;2023-04-30T00:46:44;98757.56;;;21.76;68.78
63009;BME280;49099;28.428;-16.488;2023-04-30T00:49:12;98757.09;;;21.74;68.42
63009;BME280;49099;28.428;-16.488;2023-04-30T00:51:39;98744.47;;;21.66;68.14
63009;BME280;49099;28.428;-16.488;2023-04-30T00:54:10;98739.06;;;21.66;67.75
63009;BME280;49099;28.428;-16.488;2023-04-30T00:56:38;98730.53;;;21.64;68.16
63009;BME280;49099;28.428;-16.488;2023-04-30T00:59:05;98717.47;;;21.66;68.04
63009;BME280;49099;28.428;-16.488;2023-04-30T01:01:32;98719.06;;;21.67;67.85
63009;BME280;49099;28.428;-16.488;2023-04-30T01:04:00;98711.28;;;21.65;67.65
63009;BME280;49099;28.428;-16.488;2023-04-30T01:06:27;98713.66;;;21.67;67.67
63009;BME280;49099;28.428;-16.488;2023-04-30T01:08:54;98712.97;;;21.70;67.77
63009;BME280;49099;28.428;-16.488;2023-04-30T01:17:17;98669.69;;;21.46;67.94
63009;BME280;49099;28.428;-16.488;2023-04-30T01:19:48;98664.53;;;21.40;67.94
63009;BME280;49099;28.428;-16.488;2023-04-30T01:28:16;98661.88;;;21.32;66.76
63009;BME280;49099;28.428;-16.488;2023-04-30T01:30:46;98665.09;;;21.25;67.81
63009;BME280;49099;28.428;-16.488;2023-04-30T01:33:13;98655.09;;;21.26;68.34
63009;BME280;49099;28.428;-16.488;2023-04-30T01:36:17;98652.22;;;21.31;68.60
63009;BME280;49099;28.428;-16.488;2023-04-30T01:44:36;98673.22;;;21.17;70.08
63009;BME280;49099;28.428;-16.488;2023-04-30T01:55:23;98661.94;;;21.02;69.67
63009;BME280;49099;28.428;-16.488;2023-04-30T01:57:59;98661.66;;;20.95;68.18
63009;BME280;49099;28.428;-16.488;2023-04-30T02:00:28;98653.91;;;20.94;67.61
63009;BME280;49099;28.428;-16.488;2023-04-30T02:02:58;98654.69;;;20.94;67.49
63009;BME280;49099;28.428;-16.488;2023-04-30T02:05:26;98646.28;;;20.96;67.79
63009;BME280;49099;28.428;-16.488;2023-04-30T02:07:53;98633.25;;;20.98;67.70
63009;BME280;49099;28.428;-16.488;2023-04-30T02:10:22;98627.66;;;21.03;67.72
63009;BME280;49099;28.428;-16.488;2023-04-30T02:12:50;98624.97;;;21.03;67.53
63009;BME280;49099;28.428;-16.488;2023-04-30T02:15:17;98612.28;;;21.03;67.69
63009;BME280;49099;28.428;-16.488;2023-04-30T02:17:45;98599.56;;;21.04;67.53
63009;BME280;49099;28.428;-16.488;2023-04-30T02:20:12;98600.22;;;21.01;67.95
63009;BME280;49099;28.428;-16.488;2023-04-30T02:22:40;98598.00;;;21.03;67.87
63009;BME280;49099;28.428;-16.488;2023-04-30T02:25:07;98590.56;;;21.00;67.08
63009;BME280;49099;28.428;-16.488;2023-04-30T02:27:34;98596.88;;;21.04;67.37
63009;BME280;49099;28.428;-16.488;2023-04-30T02:30:02;98594.28;;;21.07;67.12
63009;BME280;49099;28.428;-16.488;2023-04-30T02:32:30;98597.78;;;21.08;67.56
63009;BME280;49099;28.428;-16.488;2023-04-30T02:34:57;98599.56;;;21.04;67.11
63009;BME280;49099;28.428;-16.488;2023-04-30T02:37:24;98598.66;;;21.00;67.76
63009;BME280;49099;28.428;-16.488;2023-04-30T02:39:52;98604.81;;;21.00;66.94
63009;BME280;49099;28.428;-16.488;2023-04-30T02:42:20;98608.00;;;21.02;65.59
63009;BME280;49099;28.428;-16.488;2023-04-30T02:44:47;98601.03;;;21.01;65.94
63009;BME280;49099;28.428;-16.488;2023-04-30T02:47:14;98595.50;;;20.98;66.50
63009;BME280;49099;28.428;-16.488;2023-04-30T02:49:41;98593.25;;;21.00;66.46
63009;BME280;49099;28.428;-16.488;2023-04-30T02:52:09;98587.75;;;20.96;66.21
63009;BME280;49099;28.428;-16.488;2023-04-30T02:54:36;98580.09;;;20.98;66.30
63009;BME280;49099;28.428;-16.488;2023-04-30T02:57:03;98569.91;;;21.04;65.82
63009;BME280;49099;28.428;-16.488;2023-04-30T02:59:30;98569.47;;;21.02;65.51
63009;BME280;49099;28.428;-16.488;2023-04-30T03:01:57;98571.94;;;21.07;65.32
63009;BME280;49099;28.428;-16.488;2023-04-30T03:04:24;98575.56;;;21.11;64.23
63009;BME280;49099;28.428;-16.488;2023-04-30T03:06:52;98561.28;;;21.10;64.03
63009;BME280;49099;28.428;-16.488;2023-04-30T03:09:19;98565.22;;;21.13;63.64
63009;BME280;49099;28.428;-16.488;2023-04-30T03:11:46;98561.41;;;21.14;63.71
63009;BME280;49099;28.428;-16.488;2023-04-30T03:14:13;98556.34;;;21.12;63.32
63009;BME280;49099;28.428;-16.488;2023-04-30T03:16:41;98555.13;;;21.10;63.51
63009;BME280;49099;28.428;-16.488;2023-04-30T03:19:08;98553.06;;;21.07;62.25
63009;BME280;49099;28.428;-16.488;2023-04-30T03:21:35;98554.84;;;21.03;61.00
63009;BME280;49099;28.428;-16.488;2023-04-30T03:24:02;98554.59;;;20.96;60.28
63009;BME280;49099;28.428;-16.488;2023-04-30T03:26:29;98556.69;;;20.90;60.84
63009;BME280;49099;28.428;-16.488;2023-04-30T03:28:56;98561.56;;;20.97;60.30
63009;BME280;49099;28.428;-16.488;2023-04-30T03:31:24;98569.47;;;21.02;60.15
63009;BME280;49099;28.428;-16.488;2023-04-30T03:33:51;98566.75;;;21.02;59.95
63009;BME280;49099;28.428;-16.488;2023-04-30T03:36:18;98574.06;;;21.01;60.05
63009;BME280;49099;28.428;-16.488;2023-04-30T03:38:45;98578.66;;;21.01;59.83
63009;BME280;49099;28.428;-16.488;2023-04-30T03:41:12;98579.56;;;21.05;60.30
63009;BME280;49099;28.428;-16.488;2023-04-30T03:43:39;98571.94;;;21.07;60.32
63009;BME280;49099;28.428;-16.488;2023-04-30T03:46:06;98572.34;;;20.97;60.58
63009;BME280;49099;28.428;-16.488;2023-04-30T03:48:34;98574.13;;;20.93;61.20
63009;BME280;49099;28.428;-16.488;2023-04-30T03:51:01;98568.78;;;20.84;61.46
63009;BME280;49099;28.428;-16.488;2023-04-30T03:53:28;98572.50;;;20.79;61.56
63009;BME280;49099;28.428;-16.488;2023-04-30T03:55:56;98579.47;;;20.80;60.94
63009;BME280;49099;28.428;-16.488;2023-04-30T03:58:23;98574.72;;;20.77;60.60
63009;BME280;49099;28.428;-16.488;2023-04-30T04:00:51;98574.47;;;20.70;60.68
63009;BME280;49099;28.428;-16.488;2023-04-30T04:03:18;98581.44;;;20.71;61.58
63009;BME280;49099;28.428;-16.488;2023-04-30T04:05:46;98582.22;;;20.72;61.84
63009;BME280;49099;28.428;-16.488;2023-04-30T04:08:13;98577.63;;;20.72;61.95
63009;BME280;49099;28.428;-16.488;2023-04-30T04:10:40;98580.31;;;20.72;61.43
63009;BME280;49099;28.428;-16.488;2023-04-30T04:13:07;98573.66;;;20.70;61.67
63009;BME280;49099;28.428;-16.488;2023-04-30T04:15:35;98576.69;;;20.68;62.01
63009;BME280;49099;28.428;-16.488;2023-04-30T04:18:02;98582.41;;;20.67;62.61
63009;BME280;49099;28.428;-16.488;2023-04-30T04:20:29;98579.72;;;20.67;62.70
63009;BME280;49099;28.428;-16.488;2023-04-30T04:22:57;98579.38;;;20.68;63.07
63009;BME280;49099;28.428;-16.488;2023-04-30T04:25:24;98573.97;;;20.68;62.94
63009;BME280;49099;28.428;-16.488;2023-04-30T04:27:51;98573.66;;;20.70;62.86
63009;BME280;49099;28.428;-16.488;2023-04-30T04:30:18;98565.13;;;20.68;62.83
63009;BME280;49099;28.428;-16.488;2023-04-30T04:32:45;98562.75;;;20.66;62.72
63009;BME280;49099;28.428;-16.488;2023-04-30T04:35:15;98552.75;;;20.67;62.87
63009;BME280;49099;28.428;-16.488;2023-04-30T04:37:42;98548.81;;;20.64;62.62
63009;BME280;49099;28.428;-16.488;2023-04-30T04:40:09;98555.78;;;20.65;62.61
63009;BME280;49099;28.428;-16.488;2023-04-30T04:42:38;98547.25;;;20.63;62.79
63009;BME280;49099;28.428;-16.488;2023-04-30T04:45:06;98541.38;;;20.61;62.88
63009;BME280;49099;28.428;-16.488;2023-04-30T04:47:33;98538.84;;;20.65;62.62
63009;BME280;49099;28.428;-16.488;2023-04-30T04:50:01;98538.38;;;20.63;62.57
63009;BME280;49099;28.428;-16.488;2023-04-30T04:52:28;98539.63;;;20.65;62.46
63009;BME280;49099;28.428;-16.488;2023-04-30T04:54:55;98549.09;;;20.71;61.83
63009;BME280;49099;28.428;-16.488;2023-04-30T04:57:23;98549.63;;;20.65;61.94
63009;BME280;49099;28.428;-16.488;2023-04-30T04:59:50;98541.19;;;20.66;62.07
63009;BME280;49099;28.428;-16.488;2023-04-30T05:02:17;98555.34;;;20.63;62.57
63009;BME280;49099;28.428;-16.488;2023-04-30T05:04:44;98553.59;;;20.58;62.85
63009;BME280;49099;28.428;-16.488;2023-04-30T05:07:13;98557.09;;;20.59;63.55
63009;BME280;49099;28.428;-16.488;2023-04-30T05:09:40;98553.94;;;20.57;63.43
63009;BME280;49099;28.428;-16.488;2023-04-30T05:12:07;98561.56;;;20.55;61.22
63009;BME280;49099;28.428;-16.488;2023-04-30T05:14:34;98558.66;;;20.60;61.35
63009;BME280;49099;28.428;-16.488;2023-04-30T05:17:02;98552.91;;;20.70;60.99
63009;BME280;49099;28.428;-16.488;2023-04-30T05:19:30;98556.06;;;20.72;60.32
63009;BME280;49099;28.428;-16.488;2023-04-30T05:21:57;98552.09;;;20.70;60.95
63009;BME280;49099;28.428;-16.488;2023-04-30T05:24:24;98555.38;;;20.75;61.35
63009;BME280;49099;28.428;-16.488;2023-04-30T05:26:51;98554.06;;;20.81;60.06
63009;BME280;49099;28.428;-16.488;2023-04-30T05:29:18;98549.47;;;20.82;60.25
63009;BME280;49099;28.428;-16.488;2023-04-30T05:31:45;98543.03;;;20.74;60.12
63009;BME280;49099;28.428;-16.488;2023-04-30T05:34:12;98546.25;;;20.68;60.42
63009;BME280;49099;28.428;-16.488;2023-04-30T05:36:39;98536.91;;;20.65;61.10
63009;BME280;49099;28.428;-16.488;2023-04-30T05:39:09;98529.34;;;20.58;61.46
63009;BME280;49099;28.428;-16.488;2023-04-30T05:41:36;98529.88;;;20.52;61.93
63009;BME280;49099;28.428;-16.488;2023-04-30T05:44:04;98529.09;;;20.51;62.11
63009;BME280;49099;28.428;-16.488;2023-04-30T05:46:32;98531.59;;;20.56;62.29
63009;BME280;49099;28.428;-16.488;2023-04-30T05:49:01;98525.03;;;20.66;61.87
63009;BME280;49099;28.428;-16.488;2023-04-30T05:51:28;98519.19;;;20.64;61.70
63009;BME280;49099;28.428;-16.488;2023-04-30T05:53:55;98524.09;;;20.62;61.54
63009;BME280;49099;28.428;-16.488;2023-04-30T05:56:23;98527.00;;;20.57;61.67
63009;BME280;49099;28.428;-16.488;2023-04-30T05:58:52;98529.25;;;20.55;61.62
63009;BME280;49099;28.428;-16.488;2023-04-30T06:01:21;98531.94;;;20.55;61.25
63009;BME280;49099;28.428;-16.488;2023-04-30T06:03:49;98527.59;;;20.63;61.57
63009;BME280;49099;28.428;-16.488;2023-04-30T06:06:16;98534.88;;;20.62;60.30
63009;BME280;49099;28.428;-16.488;2023-04-30T06:08:43;98531.72;;;20.60;59.82
63009;BME280;49099;28.428;-16.488;2023-04-30T06:11:11;98531.72;;;20.60;60.03
63009;BME280;49099;28.428;-16.488;2023-04-30T06:13:39;98533.28;;;20.61;59.63
63009;BME280;49099;28.428;-16.488;2023-04-30T06:16:07;98532.66;;;20.64;58.84
63009;BME280;49099;28.428;-16.488;2023-04-30T06:18:34;98541.84;;;20.63;59.19
63009;BME280;49099;28.428;-16.488;2023-04-30T06:21:01;98536.78;;;20.62;59.13
63009;BME280;49099;28.428;-16.488;2023-04-30T06:23:29;98538.56;;;20.57;59.47
63009;BME280;49099;28.428;-16.488;2023-04-30T06:25:56;98535.72;;;20.54;59.41
63009;BME280;49099;28.428;-16.488;2023-04-30T06:28:23;98537.09;;;20.60;59.22
63009;BME280;49099;28.428;-16.488;2023-04-30T06:30:50;98544.75;;;20.58;58.41
63009;BME280;49099;28.428;-16.488;2023-04-30T06:33:20;98542.50;;;20.60;58.11
63009;BME280;49099;28.428;-16.488;2023-04-30T06:35:47;98544.06;;;20.61;56.99
63009;BME280;49099;28.428;-16.488;2023-04-30T06:38:16;98553.59;;;20.58;56.43
63009;BME280;49099;28.428;-16.488;2023-04-30T06:40:44;98556.19;;;20.55;54.40
63009;BME280;49099;28.428;-16.488;2023-04-30T06:43:11;98555.25;;;20.51;55.36
63009;BME280;49099;28.428;-16.488;2023-04-30T06:45:38;98555.53;;;20.58;55.67
63009;BME280;49099;28.428;-16.488;2023-04-30T06:48:05;98564.06;;;20.60;54.60
63009;BME280;49099;28.428;-16.488;2023-04-30T06:50:33;98566.56;;;20.65;54.88
63009;BME280;49099;28.428;-16.488;2023-04-30T06:53:00;98561.44;;;20.72;55.73
63009;BME280;49099;28.428;-16.488;2023-04-30T06:55:28;98553.63;;;20.79;54.40
63009;BME280;49099;28.428;-16.488;2023-04-30T06:57:55;98554.06;;;20.81;54.85
63009;BME280;49099;28.428;-16.488;2023-04-30T07:00:23;98555.84;;;20.77;54.67
63009;BME280;49099;28.428;-16.488;2023-04-30T07:02:50;98556.06;;;20.72;55.78
63009;BME280;49099;28.428;-16.488;2023-04-30T07:05:18;98562.34;;;20.76;56.46
63009;BME280;49099;28.428;-16.488;2023-04-30T07:07:45;98557.22;;;20.83;55.81
63009;BME280;49099;28.428;-16.488;2023-04-30T07:10:12;98552.75;;;20.88;55.12
63009;BME280;49099;28.428;-16.488;2023-04-30T07:12:40;98554.34;;;20.89;53.82
63009;BME280;49099;28.428;-16.488;2023-04-30T07:15:07;98554.34;;;20.89;51.56
63009;BME280;49099;28.428;-16.488;2023-04-30T07:17:34;98553.41;;;20.84;51.77
63009;BME280;49099;28.428;-16.488;2023-04-30T07:20:02;98557.22;;;20.83;50.89
63009;BME280;49099;28.428;-16.488;2023-04-30T07:22:30;98560.19;;;20.91;52.22
63009;BME280;49099;28.428;-16.488;2023-04-30T07:24:57;98547.38;;;20.88;51.65
63009;BME280;49099;28.428;-16.488;2023-04-30T07:27:25;98562.88;;;20.91;52.13
63009;BME280;49099;28.428;-16.488;2023-04-30T07:29:53;98559.84;;;20.92;51.68
63009;BME280;49099;28.428;-16.488;2023-04-30T07:32:21;98563.22;;;20.89;52.27
63009;BME280;49099;28.428;-16.488;2023-04-30T07:34:48;98566.97;;;20.97;52.72
63009;BME280;49099;28.428;-16.488;2023-04-30T07:37:15;98566.28;;;21.00;52.29
63009;BME280;49099;28.428;-16.488;2023-04-30T07:39:43;98565.91;;;21.10;52.59
63009;BME280;49099;28.428;-16.488;2023-04-30T07:42:10;98564.56;;;21.16;52.32
63009;BME280;49099;28.428;-16.488;2023-04-30T07:44:37;98564.34;;;21.21;51.69
63009;BME280;49099;28.428;-16.488;2023-04-30T07:47:05;98573.38;;;21.25;52.00
63009;BME280;49099;28.428;-16.488;2023-04-30T07:49:32;98586.94;;;21.37;52.68
63009;BME280;49099;28.428;-16.488;2023-04-30T07:51:59;98577.31;;;21.49;53.47
63009;BME280;49099;28.428;-16.488;2023-04-30T07:54:27;98582.38;;;21.50;53.91
63009;BME280;49099;28.428;-16.488;2023-04-30T07:56:54;98587.66;;;21.59;53.84
63009;BME280;49099;28.428;-16.488;2023-04-30T07:59:21;98600.72;;;21.57;53.36
63009;BME280;49099;28.428;-16.488;2023-04-30T08:01:50;98607.56;;;21.54;53.07
63009;BME280;49099;28.428;-16.488;2023-04-30T08:04:17;98615.34;;;21.56;57.11
63009;BME280;49099;28.428;-16.488;2023-04-30T08:06:44;98617.97;;;21.44;58.05
63009;BME280;49099;28.428;-16.488;2023-04-30T08:09:12;98614.25;;;21.36;57.57
63009;BME280;49099;28.428;-16.488;2023-04-30T08:11:39;98614.50;;;21.43;56.65
63009;BME280;49099;28.428;-16.488;2023-04-30T08:14:06;98613.44;;;21.56;56.10
63009;BME280;49099;28.428;-16.488;2023-04-30T08:16:33;98616.69;;;21.62;54.90
63009;BME280;49099;28.428;-16.488;2023-04-30T08:19:01;98603.66;;;21.64;53.18
63009;BME280;49099;28.428;-16.488;2023-04-30T08:21:28;98609.50;;;21.66;54.67
63009;BME280;49099;28.428;-16.488;2023-04-30T08:23:56;98618.72;;;21.65;54.74
63009;BME280;49099;28.428;-16.488;2023-04-30T08:26:24;98614.22;;;21.69;54.81
63009;BME280;49099;28.428;-16.488;2023-04-30T08:28:51;98610.00;;;21.80;54.42
63009;BME280;49099;28.428;-16.488;2023-04-30T08:31:19;98612.16;;;21.87;53.14
63009;BME280;49099;28.428;-16.488;2023-04-30T08:33:46;98607.31;;;21.92;52.02
63009;BME280;49099;28.428;-16.488;2023-04-30T08:36:13;98603.06;;;22.04;52.64
63009;BME280;49099;28.428;-16.488;2023-04-30T08:38:41;98610.63;;;22.10;49.39
63009;BME280;49099;28.428;-16.488;2023-04-30T08:41:11;98618.63;;;22.19;49.88
63009;BME280;49099;28.428;-16.488;2023-04-30T08:43:39;98623.34;;;22.22;47.31
63009;BME280;49099;28.428;-16.488;2023-04-30T08:46:07;98619.16;;;22.24;49.61
63009;BME280;49099;28.428;-16.488;2023-04-30T08:48:34;98626.28;;;22.29;50.89
63009;BME280;49099;28.428;-16.488;2023-04-30T08:51:03;98629.19;;;22.24;52.73
63009;BME280;49099;28.428;-16.488;2023-04-30T08:53:34;98637.19;;;22.33;53.38
63009;BME280;49099;28.428;-16.488;2023-04-30T08:56:02;98645.19;;;22.29;53.76
63009;BME280;49099;28.428;-16.488;2023-04-30T08:58:30;98652.38;;;22.25;55.18
63009;BME280;49099;28.428;-16.488;2023-04-30T09:00:58;98658.22;;;22.15;56.08
63009;BME280;49099;28.428;-16.488;2023-04-30T09:03:25;98653.59;;;22.03;57.71
63009;BME280;49099;28.428;-16.488;2023-04-30T09:05:54;98660.66;;;21.95;58.87
63009;BME280;49099;28.428;-16.488;2023-04-30T09:11:25;98643.66;;;21.95;61.85
63009;BME280;49099;28.428;-16.488;2023-04-30T09:13:57;98643.78;;;21.98;61.97
63009;BME280;49099;28.428;-16.488;2023-04-30T09:16:27;98640.88;;;22.04;62.31
63009;BME280;49099;28.428;-16.488;2023-04-30T09:18:56;98642.81;;;22.15;61.42
63009;BME280;49099;28.428;-16.488;2023-04-30T09:21:34;98640.34;;;22.22;62.38
63009;BME280;49099;28.428;-16.488;2023-04-30T09:24:03;98634.16;;;22.22;62.79
63009;BME280;49099;28.428;-16.488;2023-04-30T09:26:35;98626.97;;;22.26;62.45
63009;BME280;49099;28.428;-16.488;2023-04-30T09:29:04;98621.75;;;22.33;61.46
63009;BME280;49099;28.428;-16.488;2023-04-30T09:31:36;98622.91;;;22.44;60.76
63009;BME280;49099;28.428;-16.488;2023-04-30T09:34:04;98623.56;;;22.53;61.54
63009;BME280;49099;28.428;-16.488;2023-04-30T09:36:32;98621.88;;;22.61;61.12
63009;BME280;49099;28.428;-16.488;2023-04-30T09:39:08;98633.59;;;22.65;60.76
63009;BME280;49099;28.428;-16.488;2023-04-30T09:41:41;98631.19;;;22.64;60.41
63009;BME280;49099;28.428;-16.488;2023-04-30T09:44:29;98644.84;;;22.67;61.14
63009;BME280;49099;28.428;-16.488;2023-04-30T09:46:57;98643.16;;;22.75;61.40
63009;BME280;49099;28.428;-16.488;2023-04-30T09:49:25;98646.19;;;22.73;61.48
63009;BME280;49099;28.428;-16.488;2023-04-30T09:51:57;98643.94;;;22.75;61.04
63009;BME280;49099;28.428;-16.488;2023-04-30T09:54:27;98646.19;;;22.86;60.35
63009;BME280;49099;28.428;-16.488;2023-04-30T09:56:57;98640.66;;;22.94;60.54
63009;BME280;49099;28.428;-16.488;2023-04-30T09:59:30;98644.25;;;22.98;60.19
63009;BME280;49099;28.428;-16.488;2023-04-30T10:01:58;98640.88;;;23.01;60.83
63009;BME280;49099;28.428;-16.488;2023-04-30T10:04:33;98646.41;;;22.93;61.05
63009;BME280;49099;28.428;-16.488;2023-04-30T10:07:04;98638.28;;;22.93;61.39
63009;BME280;49099;28.428;-16.488;2023-04-30T10:09:43;98647.53;;;22.92;61.70
63009;BME280;49099;28.428;-16.488;2023-04-30T10:12:22;98652.16;;;22.91;61.61
63009;BME280;49099;28.428;-16.488;2023-04-30T10:15:08;98644.28;;;22.86;60.92
63009;BME280;49099;28.428;-16.488;2023-04-30T10:17:37;98641.09;;;22.84;61.02
63009;BME280;49099;28.428;-16.488;2023-04-30T10:20:08;98649.25;;;22.96;60.55
63009;BME280;49099;28.428;-16.488;2023-04-30T10:22:37;98636.16;;;22.98;60.37
63009;BME280;49099;28.428;-16.488;2023-04-30T10:25:07;98637.94;;;23.06;60.60
63009;BME280;49099;28.428;-16.488;2023-04-30T10:27:37;98622.47;;;23.07;60.41
63009;BME280;49099;28.428;-16.488;2023-04-30T10:30:06;98625.84;;;23.16;60.41
63009;BME280;49099;28.428;-16.488;2023-04-30T10:33:16;98629.53;;;23.24;60.11
63009;BME280;49099;28.428;-16.488;2023-04-30T10:36:03;98616.53;;;23.29;59.65
63009;BME280;49099;28.428;-16.488;2023-04-30T10:38:33;98620.91;;;23.34;59.66
63009;BME280;49099;28.428;-16.488;2023-04-30T10:41:05;98620.47;;;23.32;60.19
63009;BME280;49099;28.428;-16.488;2023-04-30T10:43:35;98621.19;;;23.29;60.67
63009;BME280;49099;28.428;-16.488;2023-04-30T10:46:02;98622.78;;;23.18;60.93
63009;BME280;49099;28.428;-16.488;2023-04-30T10:48:33;98624.16;;;23.12;61.43
63009;BME280;49099;28.428;-16.488;2023-04-30T10:51:01;98626.41;;;23.10;61.85
63009;BME280;49099;28.428;-16.488;2023-04-30T10:53:30;98631.59;;;23.15;61.61
63009;BME280;49099;28.428;-16.488;2023-04-30T10:56:02;98634.78;;;23.04;61.90
63009;BME280;49099;28.428;-16.488;2023-04-30T10:58:37;98635.00;;;22.99;62.21
63009;BME280;49099;28.428;-16.488;2023-04-30T11:01:10;98648.53;;;22.99;62.33
63009;BME280;49099;28.428;-16.488;2023-04-30T11:03:40;98641.22;;;23.00;62.44
63009;BME280;49099;28.428;-16.488;2023-04-30T11:06:13;98644.69;;;23.00;62.16
63009;BME280;49099;28.428;-16.488;2023-04-30T11:08:44;98643.72;;;22.93;62.14
63009;BME280;49099;28.428;-16.488;2023-04-30T11:11:17;98645.63;;;22.92;62.05
63009;BME280;49099;28.428;-16.488;2023-04-30T11:13:58;98650.25;;;22.92;61.79
63009;BME280;49099;28.428;-16.488;2023-04-30T11:16:30;98656.66;;;22.87;61.97
63009;BME280;49099;28.428;-16.488;2023-04-30T11:19:11;98640.56;;;22.91;62.13
63009;BME280;49099;28.428;-16.488;2023-04-30T11:27:22;98643.56;;;23.01;63.38
63009;BME280;49099;28.428;-16.488;2023-04-30T11:29:50;98631.38;;;23.07;63.80
63009;BME280;49099;28.428;-16.488;2023-04-30T11:32:22;98630.47;;;23.16;63.62
63009;BME280;49099;28.428;-16.488;2023-04-30T11:34:49;98631.34;;;23.20;64.01
63009;BME280;49099;28.428;-16.488;2023-04-30T11:37:20;98631.44;;;23.23;63.79
63009;BME280;49099;28.428;-16.488;2023-04-30T11:39:49;98628.41;;;23.25;63.78
63009;BME280;49099;28.428;-16.488;2023-04-30T11:42:17;98639.06;;;23.33;63.89
63009;BME280;49099;28.428;-16.488;2023-04-30T11:44:45;98642.56;;;23.34;63.93
63009;BME280;49099;28.428;-16.488;2023-04-30T11:47:13;98643.50;;;23.26;64.43
63009;BME280;49099;28.428;-16.488;2023-04-30T11:49:42;98638.34;;;23.21;64.39
63009;BME280;49099;28.428;-16.488;2023-04-30T11:52:12;98640.69;;;23.22;64.50
63009;BME280;49099;28.428;-16.488;2023-04-30T11:54:39;98631.56;;;23.27;64.36
63009;BME280;49099;28.428;-16.488;2023-04-30T11:57:06;98627.47;;;23.33;64.37
63009;BME280;49099;28.428;-16.488;2023-04-30T11:59:39;98617.19;;;23.39;64.41
63009;BME280;49099;28.428;-16.488;2023-04-30T12:02:14;98615.47;;;23.46;64.27
63009;BME280;49099;28.428;-16.488;2023-04-30T12:04:42;98621.41;;;23.52;63.84
63009;BME280;49099;28.428;-16.488;2023-04-30T12:07:09;98616.78;;;23.52;63.96
63009;BME280;49099;28.428;-16.488;2023-04-30T12:09:55;98614.50;;;23.54;63.91
63009;BME280;49099;28.428;-16.488;2023-04-30T12:12:29;98617.38;;;23.46;64.02
63009;BME280;49099;28.428;-16.488;2023-04-30T12:14:56;98620.53;;;23.48;63.78
63009;BME280;49099;28.428;-16.488;2023-04-30T12:17:34;98614.75;;;23.49;63.83
63009;BME280;49099;28.428;-16.488;2023-04-30T12:20:01;98617.47;;;23.49;63.80
63009;BME280;49099;28.428;-16.488;2023-04-30T12:22:30;98623.00;;;23.53;63.93
63009;BME280;49099;28.428;-16.488;2023-04-30T12:24:58;98627.81;;;23.59;63.62
63009;BME280;49099;28.428;-16.488;2023-04-30T12:27:26;98628.47;;;23.56;64.03
63009;BME280;49099;28.428;-16.488;2023-04-30T12:29:54;98628.16;;;23.58;64.01
63009;BME280;49099;28.428;-16.488;2023-04-30T12:32:22;98629.41;;;23.60;63.71
63009;BME280;49099;28.428;-16.488;2023-04-30T12:34:50;98634.03;;;23.60;63.52
63009;BME280;49099;28.428;-16.488;2023-04-30T12:37:17;98630.75;;;23.54;63.83
63009;BME280;49099;28.428;-16.488;2023-04-30T12:39:44;98636.28;;;23.58;63.45
63009;BME280;49099;28.428;-16.488;2023-04-30T12:42:17;98636.81;;;23.63;63.57
63009;BME280;49099;28.428;-16.488;2023-04-30T12:44:45;98631.75;;;23.62;63.23
63009;BME280;49099;28.428;-16.488;2023-04-30T12:47:12;98638.34;;;23.77;63.14
63009;BME280;49099;28.428;-16.488;2023-04-30T12:49:40;98635.03;;;23.83;62.48
63009;BME280;49099;28.428;-16.488;2023-04-30T12:52:09;98633.31;;;23.91;61.63
63009;BME280;49099;28.428;-16.488;2023-04-30T12:54:38;98640.28;;;23.92;61.02
63009;BME280;49099;28.428;-16.488;2023-04-30T12:57:10;98638.72;;;23.91;59.88
63009;BME280;49099;28.428;-16.488;2023-04-30T12:59:39;98629.53;;;23.96;61.15
63009;BME280;49099;28.428;-16.488;2023-04-30T13:02:12;98620.44;;;24.04;60.75
63009;BME280;49099;28.428;-16.488;2023-04-30T13:04:41;98621.34;;;24.08;61.20
63009;BME280;49099;28.428;-16.488;2023-04-30T13:07:09;98621.88;;;24.13;62.16
63009;BME280;49099;28.428;-16.488;2023-04-30T13:09:37;98625.00;;;24.15;62.05
63009;BME280;49099;28.428;-16.488;2023-04-30T13:12:04;98621.34;;;24.08;62.04
63009;BME280;49099;28.428;-16.488;2023-04-30T13:14:32;98625.53;;;24.05;62.39
63009;BME280;49099;28.428;-16.488;2023-04-30T13:17:00;98624.66;;;24.01;62.25
63009;BME280;49099;28.428;-16.488;2023-04-30T13:19:30;98618.88;;;24.03;61.88
63009;BME280;49099;28.428;-16.488;2023-04-30T13:21:58;98613.72;;;24.13;60.89